createdAt,value
2022-10-03T00:00:12.176Z,37.30
2022-10-03T00:03:30.238Z,37.10
2022-10-03T00:06:32.510Z,36.13
2022-10-03T00:09:47.215Z,36.30
2022-10-03T00:13:02.559Z,35.60
2022-10-03T00:16:10.700Z,35.10
2022-10-03T00:19:07.802Z,34.10
2022-10-03T00:22:02.046Z,33.23
2022-10-03T00:25:14.237Z,34.30
2022-10-03T00:28:25.543Z,33.10
2022-10-03T00:31:16.863Z,31.03
2022-10-03T00:34:19.571Z,31.07
2022-10-03T00:37:10.966Z,31.00
2022-10-03T00:40:30.767Z,30.90
2022-10-03T00:43:37.125Z,29.43
2022-10-03T00:46:25.793Z,30.03
2022-10-03T00:49:29.381Z,28.73
2022-10-03T00:52:47.085Z,28.47
2022-10-03T00:55:47.695Z,28.30
2022-10-03T00:59:04.490Z,27.07
2022-10-03T01:01:50.420Z,26.93
2022-10-03T01:04:47.362Z,25.67
2022-10-03T01:07:54.763Z,26.77
2022-10-03T01:10:52.087Z,25.70
2022-10-03T01:14:15.514Z,23.47
2022-10-03T01:17:32.862Z,25.03
2022-10-03T01:20:36.049Z,25.97
2022-10-03T01:23:46.234Z,25.83
2022-10-03T01:26:52.434Z,23.23
2022-10-03T01:30:11.930Z,23.97
2022-10-03T01:33:10.551Z,23.30
2022-10-03T01:36:07.590Z,21.60
2022-10-03T01:39:20.570Z,22.13
2022-10-03T01:42:18.010Z,22.80
2022-10-03T01:45:13.090Z,20.83
2022-10-03T01:48:08.223Z,21.13
2022-10-03T01:51:04.286Z,21.73
2022-10-03T01:54:11.426Z,19.67
2022-10-03T01:56:57.798Z,20.87
2022-10-03T01:59:47.530Z,20.10
2022-10-03T02:02:32.573Z,18.10
2022-10-03T02:05:41.876Z,19.90
2022-10-03T02:08:49.788Z,18.30
2022-10-03T02:11:45.070Z,18.87
2022-10-03T02:14:59.122Z,18.37
2022-10-03T02:17:58.072Z,17.50
2022-10-03T02:20:54.014Z,15.43
2022-10-03T02:23:44.099Z,16.30
2022-10-03T02:27:12.728Z,16.90
2022-10-03T02:30:09.353Z,16.23
2022-10-03T02:33:19.035Z,16.30
2022-10-03T02:36:23.868Z,15.53
2022-10-03T02:39:22.882Z,15.77
2022-10-03T02:42:47.339Z,14.97
2022-10-03T02:46:09.455Z,14.97
2022-10-03T02:49:29.068Z,14.17
2022-10-03T02:52:20.021Z,13.87
2022-10-03T02:55:36.424Z,14.53
2022-10-03T02:58:47.775Z,14.23
2022-10-03T03:02:05.311Z,12.70
2022-10-03T03:05:23.943Z,13.17
2022-10-03T03:08:24.922Z,13.40
2022-10-03T03:11:44.851Z,12.97
2022-10-03T03:15:20.131Z,13.20
2022-10-03T03:18:32.976Z,12.53
2022-10-03T03:21:32.314Z,12.47
2022-10-03T03:24:48.509Z,11.73
2022-10-03T03:27:48.783Z,11.53
2022-10-03T03:31:06.549Z,11.83
2022-10-03T03:34:19.014Z,10.90
2022-10-03T03:37:13.494Z,11.50
2022-10-03T03:40:20.357Z,11.67
2022-10-03T03:43:20.529Z,11.67
2022-10-03T03:46:38.633Z,9.67
2022-10-03T03:49:49.872Z,10.13
2022-10-03T03:52:46.957Z,10.53
2022-10-03T03:55:50.790Z,10.97
2022-10-03T03:59:28.870Z,10.40
2022-10-03T04:02:19.779Z,9.73
2022-10-03T04:05:28.217Z,9.67
2022-10-03T04:08:21.103Z,9.60
2022-10-03T04:11:38.581Z,9.23
2022-10-03T04:14:45.748Z,8.70
2022-10-03T04:18:12.498Z,9.77
2022-10-03T04:21:27.918Z,9.47
2022-10-03T04:24:30.833Z,8.47
2022-10-03T04:27:40.058Z,8.40
2022-10-03T04:30:53.192Z,8.90
2022-10-03T04:33:47.482Z,8.67
2022-10-03T04:37:03.529Z,8.37
2022-10-03T04:39:52.814Z,8.40
2022-10-03T04:42:52.153Z,8.37
2022-10-03T04:45:56.666Z,7.67
2022-10-03T04:49:02.631Z,7.77
2022-10-03T04:52:07.371Z,8.03
2022-10-03T04:55:17.554Z,8.20
2022-10-03T04:58:17.795Z,8.00
2022-10-03T05:01:23.956Z,7.20
2022-10-03T05:04:26.453Z,6.93
2022-10-03T05:07:27.570Z,7.07
2022-10-03T05:10:40.421Z,7.60
2022-10-03T05:13:43.231Z,6.60
2022-10-03T05:17:03.376Z,7.33
2022-10-03T05:20:24.303Z,6.57
2022-10-03T05:23:32.738Z,7.13
2022-10-03T05:26:49.183Z,6.90
2022-10-03T05:29:43.950Z,5.50
2022-10-03T05:32:44.227Z,6.67
2022-10-03T05:36:06.099Z,5.80
2022-10-03T05:39:27.266Z,6.03
2022-10-03T05:42:55.120Z,5.60
2022-10-03T05:46:19.385Z,5.53
2022-10-03T05:49:16.597Z,5.40
2022-10-03T05:52:20.299Z,5.50
2022-10-03T05:55:26.462Z,4.80
2022-10-03T05:58:20.424Z,5.67
2022-10-03T06:01:22.726Z,4.80
2022-10-03T06:04:35.975Z,4.73
2022-10-03T06:07:45.447Z,5.33
2022-10-03T06:10:43.571Z,5.13
2022-10-03T06:13:51.867Z,5.70
2022-10-03T06:17:04.239Z,5.30
2022-10-03T06:20:04.489Z,4.00
2022-10-03T06:23:28.147Z,4.90
2022-10-03T06:26:38.565Z,4.77
2022-10-03T06:29:45.207Z,4.77
2022-10-03T06:33:02.004Z,4.20
2022-10-03T06:36:29.207Z,5.03
2022-10-03T06:39:51.935Z,4.13
2022-10-03T06:42:37.562Z,4.67
2022-10-03T06:45:40.027Z,4.53
2022-10-03T06:49:07.838Z,4.20
2022-10-03T06:52:11.575Z,4.50
2022-10-03T06:55:15.059Z,3.67
2022-10-03T06:58:06.035Z,4.23
2022-10-03T07:01:12.329Z,4.17
2022-10-03T07:04:24.139Z,4.10
2022-10-03T07:07:34.134Z,3.97
2022-10-03T07:10:35.036Z,2.33
2022-10-03T07:13:46.275Z,2.13
2022-10-03T07:16:46.617Z,2.83
2022-10-03T07:20:06.090Z,2.93
2022-10-03T07:23:40.638Z,2.53
2022-10-03T07:26:31.811Z,2.80
2022-10-03T07:29:33.518Z,3.00
2022-10-03T07:32:44.072Z,2.73
2022-10-03T07:35:53.849Z,2.90
2022-10-03T07:39:18.920Z,2.33
2022-10-03T07:42:46.839Z,2.50
2022-10-03T07:45:45.261Z,2.57
2022-10-03T07:49:21.574Z,2.43
2022-10-03T07:52:23.795Z,2.70
2022-10-03T07:55:27.808Z,2.43
2022-10-03T07:58:52.029Z,2.20
2022-10-03T08:01:45.745Z,1.87
2022-10-03T08:05:00.260Z,2.10
2022-10-03T08:08:10.231Z,2.00
2022-10-03T08:11:26.273Z,2.43
2022-10-03T08:14:20.738Z,2.10
2022-10-03T08:17:05.667Z,1.77
2022-10-03T08:20:07.761Z,1.90
2022-10-03T08:23:41.290Z,2.23
2022-10-03T08:27:08.862Z,2.40
2022-10-03T08:30:06.370Z,5.33
2022-10-03T08:33:08.610Z,8.17
2022-10-03T08:36:17.140Z,7.13
2022-10-03T08:39:14.042Z,7.30
2022-10-03T08:42:21.088Z,7.53
2022-10-03T08:45:25.002Z,6.53
2022-10-03T08:48:34.791Z,5.80
2022-10-03T08:51:49.612Z,5.30
2022-10-03T08:54:40.655Z,6.23
2022-10-03T08:57:37.291Z,5.07
2022-10-03T09:00:34.770Z,4.70
2022-10-03T09:03:35.363Z,4.90
2022-10-03T09:07:15.925Z,4.60
2022-10-03T09:10:27.928Z,4.43
2022-10-03T09:13:21.830Z,4.37
2022-10-03T09:16:18.545Z,4.40
2022-10-03T09:19:40.079Z,4.20
2022-10-03T09:22:45.618Z,3.37
2022-10-03T09:26:06.538Z,3.70
2022-10-03T09:29:29.039Z,4.07
2022-10-03T09:32:40.562Z,5.03
2022-10-03T09:35:40.092Z,6.27
2022-10-03T09:39:01.163Z,6.40
2022-10-03T09:42:11.022Z,7.47
2022-10-03T09:45:22.875Z,8.90
2022-10-03T09:48:40.702Z,9.10
2022-10-03T09:51:38.180Z,9.60
2022-10-03T09:54:38.274Z,11.33
2022-10-03T09:57:38.777Z,11.10
2022-10-03T10:00:40.780Z,13.43
2022-10-03T10:03:41.073Z,16.27
2022-10-03T10:06:50.873Z,17.37
2022-10-03T10:09:54.175Z,18.83
2022-10-03T10:12:57.908Z,21.17
2022-10-03T10:15:54.941Z,20.70
2022-10-03T10:19:02.526Z,22.17
2022-10-03T10:22:45.867Z,23.63
2022-10-03T10:25:38.073Z,25.57
2022-10-03T10:28:49.543Z,25.10
2022-10-03T10:31:46.794Z,25.97
2022-10-03T10:35:01.571Z,27.30
2022-10-03T10:38:11.193Z,26.07
2022-10-03T10:41:24.418Z,28.50
2022-10-03T10:44:46.430Z,26.60
2022-10-03T10:48:08.558Z,29.57
2022-10-03T10:51:08.797Z,29.07
2022-10-03T10:54:12.443Z,29.20
2022-10-03T10:57:25.861Z,29.63
2022-10-03T11:00:21.337Z,31.40
2022-10-03T11:03:28.101Z,29.00
2022-10-03T11:06:57.209Z,30.00
2022-10-03T11:10:00.385Z,28.43
2022-10-03T11:13:44.553Z,28.60
2022-10-03T11:16:57.862Z,30.03
2022-10-03T11:20:40.599Z,30.17
2022-10-03T11:24:02.771Z,28.50
2022-10-03T11:26:53.590Z,29.10
2022-10-03T11:29:57.437Z,29.07
2022-10-03T11:33:07.846Z,30.10
2022-10-03T11:36:01.952Z,28.37
2022-10-03T11:39:08.594Z,27.60
2022-10-03T11:42:10.598Z,26.47
2022-10-03T11:44:58.939Z,26.97
2022-10-03T11:47:56.168Z,32.07
2022-10-03T11:50:55.059Z,37.90
2022-10-03T11:53:46.919Z,36.67
2022-10-03T11:56:40.869Z,40.80
2022-10-03T11:59:41.120Z,54.13
2022-10-03T12:03:00.313Z,57.63
2022-10-03T12:05:48.461Z,71.10
2022-10-03T12:08:56.389Z,79.93
2022-10-03T12:12:27.749Z,81.20
2022-10-03T12:15:21.265Z,69.27
2022-10-03T12:18:06.066Z,75.37
2022-10-03T12:21:09.346Z,81.37
2022-10-03T12:24:19.335Z,93.47
2022-10-03T12:27:04.194Z,108.07
2022-10-03T12:29:58.515Z,98.20
2022-10-03T12:33:09.135Z,92.77
2022-10-03T12:36:05.190Z,96.03
2022-10-03T12:39:19.241Z,106.23
2022-10-03T12:42:28.461Z,126.37
2022-10-03T12:45:19.715Z,169.50
2022-10-03T12:48:26.851Z,172.30
2022-10-03T12:51:21.033Z,176.60
2022-10-03T12:54:15.444Z,156.67
2022-10-03T12:57:27.882Z,147.70
2022-10-03T13:00:24.138Z,151.37
2022-10-03T13:03:52.057Z,172.17
2022-10-03T13:07:04.191Z,167.80
2022-10-03T13:10:09.575Z,165.27
2022-10-03T13:13:23.158Z,169.23
2022-10-03T13:16:32.097Z,182.23
2022-10-03T13:19:22.266Z,178.73
2022-10-03T13:22:45.957Z,177.73
2022-10-03T13:25:40.629Z,165.20
2022-10-03T13:28:35.639Z,166.50
2022-10-03T13:31:46.608Z,154.60
2022-10-03T13:34:38.513Z,153.47
2022-10-03T13:37:35.605Z,146.33
2022-10-03T13:40:21.079Z,137.23
2022-10-03T13:43:13.587Z,138.30
2022-10-03T13:46:01.002Z,131.27
2022-10-03T13:49:01.021Z,128.57
2022-10-03T13:51:57.128Z,123.37
2022-10-03T13:54:48.445Z,119.83
2022-10-03T13:57:48.365Z,115.50
2022-10-03T14:00:57.146Z,113.73
2022-10-03T14:04:01.155Z,109.67
2022-10-03T14:07:04.805Z,90.53
2022-10-03T14:10:13.926Z,80.93
2022-10-03T14:13:19.594Z,64.17
2022-10-03T14:16:20.401Z,57.97
2022-10-03T14:19:08.895Z,54.57
2022-10-03T14:22:28.543Z,52.90
2022-10-03T14:25:26.155Z,49.73
2022-10-03T14:28:28.338Z,38.37
2022-10-03T14:31:44.045Z,36.17
2022-10-03T14:34:48.503Z,34.03
2022-10-03T14:37:58.263Z,26.80
2022-10-03T14:41:02.264Z,24.37
2022-10-03T14:43:56.972Z,23.03
2022-10-03T14:46:48.584Z,19.10
2022-10-03T14:49:57.817Z,19.23
2022-10-03T14:52:52.337Z,18.30
2022-10-03T14:55:46.641Z,17.83
2022-10-03T14:58:43.666Z,16.70
2022-10-03T15:01:29.762Z,17.40
2022-10-03T15:04:26.591Z,14.47
2022-10-03T15:07:13.826Z,13.80
2022-10-03T15:10:01.460Z,11.53
2022-10-03T15:12:58.113Z,11.53
2022-10-03T15:15:46.345Z,9.70
2022-10-03T15:18:32.351Z,10.20
2022-10-03T15:21:18.613Z,9.90
2022-10-03T15:24:07.076Z,9.93
2022-10-03T15:26:58.769Z,11.40
2022-10-03T15:29:45.552Z,12.87
2022-10-03T15:32:42.157Z,13.23
2022-10-03T15:35:29.564Z,14.77
2022-10-03T15:38:17.830Z,15.90
2022-10-03T15:41:16.494Z,14.87
2022-10-03T15:44:18.219Z,16.27
2022-10-03T15:47:08.270Z,16.73
2022-10-03T15:50:06.983Z,16.17
2022-10-03T15:53:24.170Z,17.20
2022-10-03T15:56:22.181Z,16.00
2022-10-03T15:59:21.822Z,16.33
2022-10-03T16:02:49.734Z,16.33
2022-10-03T16:05:36.536Z,15.93
2022-10-03T16:08:26.110Z,16.53
2022-10-03T16:11:22.468Z,17.00
2022-10-03T16:14:07.270Z,16.73
2022-10-03T16:16:56.642Z,15.90
2022-10-03T16:19:51.993Z,16.60
2022-10-03T16:22:49.651Z,16.33
2022-10-03T16:25:48.842Z,15.80
2022-10-03T16:28:43.922Z,15.60
2022-10-03T16:31:37.530Z,15.60
2022-10-03T16:34:25.698Z,15.87
2022-10-03T16:37:23.643Z,15.80
2022-10-03T16:40:20.094Z,16.43
2022-10-03T16:43:09.634Z,15.23
2022-10-03T16:45:56.816Z,15.27
2022-10-03T16:49:02.626Z,15.97
2022-10-03T16:52:08.771Z,15.67
2022-10-03T16:55:00.699Z,14.93
2022-10-03T16:57:45.789Z,15.60
2022-10-03T17:00:44.787Z,15.93
2022-10-03T17:03:37.007Z,14.57
2022-10-03T17:06:35.320Z,14.53
2022-10-03T17:09:36.041Z,15.13
2022-10-03T17:12:34.905Z,14.57
2022-10-03T17:15:23.484Z,14.60
2022-10-03T17:18:55.146Z,14.67
2022-10-03T17:21:52.251Z,14.57
2022-10-03T17:24:53.607Z,15.43
2022-10-03T17:27:41.382Z,14.47
2022-10-03T17:30:52.463Z,14.83
2022-10-03T17:33:50.580Z,14.57
2022-10-03T17:36:45.252Z,13.00
2022-10-03T17:39:50.227Z,13.20
2022-10-03T17:42:54.933Z,14.03
2022-10-03T17:45:50.237Z,14.17
2022-10-03T17:48:50.384Z,13.50
2022-10-03T17:51:41.701Z,12.93
2022-10-03T17:54:32.985Z,13.70
2022-10-03T17:57:29.317Z,13.57
2022-10-03T18:00:19.409Z,13.83
2022-10-03T18:03:11.193Z,13.50
2022-10-03T18:06:22.659Z,12.03
2022-10-03T18:09:29.953Z,13.10
2022-10-03T18:12:42.201Z,12.20
2022-10-03T18:15:55.234Z,12.93
2022-10-03T18:18:56.375Z,11.57
2022-10-03T18:22:06.331Z,12.93
2022-10-03T18:26:02.394Z,12.30
2022-10-03T18:29:05.951Z,11.37
2022-10-03T18:31:59.268Z,12.03
2022-10-03T18:34:47.207Z,12.23
2022-10-03T18:37:32.199Z,11.73
2022-10-03T18:40:26.834Z,12.07
2022-10-03T18:43:45.747Z,10.60
2022-10-03T18:46:40.425Z,10.70
2022-10-03T18:49:34.032Z,10.97
2022-10-03T18:52:25.879Z,10.70
2022-10-03T18:55:20.365Z,10.37
2022-10-03T18:58:11.449Z,10.20
2022-10-03T19:01:30.926Z,10.33
2022-10-03T19:04:21.405Z,10.50
2022-10-03T19:07:21.452Z,10.13
2022-10-03T19:10:27.780Z,9.83
2022-10-03T19:13:56.925Z,9.77
2022-10-03T19:17:10.117Z,9.87
2022-10-03T19:20:11.510Z,10.27
2022-10-03T19:23:15.720Z,9.80
2022-10-03T19:26:06.269Z,9.30
2022-10-03T19:28:56.428Z,9.77
2022-10-03T19:31:57.268Z,9.30
2022-10-03T19:34:45.269Z,8.83
2022-10-03T19:37:44.450Z,7.90
2022-10-03T19:40:55.188Z,8.70
2022-10-03T19:43:50.502Z,8.70
2022-10-03T19:46:52.281Z,8.73
2022-10-03T19:49:54.699Z,8.07
2022-10-03T19:52:41.675Z,7.83
2022-10-03T19:55:37.136Z,7.67
2022-10-03T19:58:26.792Z,7.40
2022-10-03T20:01:12.717Z,8.50
2022-10-03T20:03:58.101Z,7.60
2022-10-03T20:06:49.438Z,7.73
2022-10-03T20:09:36.419Z,8.13
2022-10-03T20:12:25.555Z,7.27
2022-10-03T20:15:24.419Z,7.47
2022-10-03T20:18:36.267Z,6.50
2022-10-03T20:21:26.023Z,6.90
2022-10-03T20:24:30.356Z,7.30
2022-10-03T20:27:21.174Z,6.87
2022-10-03T20:30:45.674Z,8.10
2022-10-03T20:33:35.314Z,6.33
2022-10-03T20:36:28.622Z,7.03
2022-10-03T20:39:22.643Z,6.80
2022-10-03T20:42:14.114Z,7.00
2022-10-03T20:45:03.850Z,6.33
2022-10-03T20:47:54.598Z,6.80
2022-10-03T20:50:46.707Z,6.40
2022-10-03T20:53:32.195Z,5.80
2022-10-03T20:56:18.674Z,6.00
2022-10-03T20:59:09.545Z,6.47
2022-10-03T21:02:01.323Z,6.03
2022-10-03T21:04:54.707Z,5.90
2022-10-03T21:07:48.841Z,5.93
2022-10-03T21:10:39.525Z,5.80
2022-10-03T21:13:27.677Z,6.17
2022-10-03T21:16:21.268Z,6.37
2022-10-03T21:19:16.976Z,5.80
2022-10-03T21:22:06.851Z,5.73
2022-10-03T21:25:06.975Z,6.20
2022-10-03T21:27:55.847Z,5.50
2022-10-03T21:31:03.635Z,5.60
2022-10-03T21:33:55.478Z,6.13
2022-10-03T21:36:46.430Z,5.40
2022-10-03T21:39:56.131Z,5.50
2022-10-03T21:42:57.126Z,5.57
2022-10-03T21:46:06.821Z,5.23
2022-10-03T21:49:29.923Z,5.30
2022-10-03T21:52:24.817Z,5.33
2022-10-03T21:55:50.716Z,5.30
2022-10-03T21:58:38.956Z,4.97
2022-10-03T22:01:50.915Z,5.23
2022-10-03T22:04:41.975Z,4.33
2022-10-03T22:07:37.456Z,5.27
2022-10-03T22:10:28.832Z,4.77
2022-10-03T22:13:19.007Z,4.60
2022-10-03T22:16:14.109Z,4.77
2022-10-03T22:19:26.922Z,4.77
2022-10-03T22:22:21.128Z,4.60
2022-10-03T22:25:38.996Z,4.70
2022-10-03T22:28:43.177Z,4.43
2022-10-03T22:31:42.235Z,4.30
2022-10-03T22:34:35.587Z,4.30
2022-10-03T22:37:22.278Z,4.03
2022-10-03T22:40:08.518Z,4.47
2022-10-03T22:42:56.850Z,4.30
2022-10-03T22:45:46.234Z,4.10
2022-10-03T22:48:39.887Z,4.10
2022-10-03T22:51:25.942Z,4.20
2022-10-03T22:54:15.281Z,4.30
2022-10-03T22:57:05.292Z,4.33
2022-10-03T23:00:11.929Z,4.13
2022-10-03T23:03:22.371Z,3.70
2022-10-03T23:06:26.083Z,4.23
2022-10-03T23:09:28.325Z,4.00
2022-10-03T23:12:15.454Z,3.90
2022-10-03T23:15:04.186Z,4.43
2022-10-03T23:18:24.778Z,4.27
2022-10-03T23:21:11.397Z,3.60
2022-10-03T23:24:14.870Z,4.07
2022-10-03T23:27:33.402Z,3.83
2022-10-03T23:30:18.851Z,3.63
2022-10-03T23:33:04.008Z,3.63
2022-10-03T23:35:50.550Z,3.80
2022-10-03T23:38:36.069Z,3.67
2022-10-03T23:41:31.801Z,4.20
2022-10-03T23:44:39.079Z,3.60
2022-10-03T23:47:32.593Z,3.60
2022-10-03T23:50:33.079Z,3.90
2022-10-03T23:53:43.242Z,2.93
2022-10-03T23:56:37.547Z,3.30
2022-10-03T23:59:25.234Z,3.23
